Time;durP1;ratioP1;P1;durP2;ratioP2;P2;SDS_P1;SDS_P2;PMS_P1;PMS_P2;Temp;Humidity;BMP_temperature;BMP_pressure;BME280_temperature;BME280_humidity;BME280_pressure;Samples;Min_cycle;Max_cycle;Signal;HPM_P1;HPM_P2
2023/03/27 00:01:45;;;;;;;4.43;0.93;;;2.30;99.90;;;;;;5046629;28;20205;-49
2023/03/27 00:04:14;;;;;;;4.77;1.50;;;2.30;99.90;;;;;;5055742;28;20190;-52
2023/03/27 00:06:44;;;;;;;2.47;0.70;;;2.20;99.90;;;;;;5043414;28;20206;-49
2023/03/27 00:09:11;;;;;;;5.10;0.97;;;2.20;99.90;;;;;;5050771;28;20222;-48
2023/03/27 00:11:38;;;;;;;2.40;0.80;;;2.20;99.90;;;;;;5052987;28;20186;-50
2023/03/27 00:14:06;;;;;;;3.13;0.87;;;2.10;99.90;;;;;;5035781;28;20215;-50
2023/03/27 00:16:33;;;;;;;3.93;0.70;;;2.10;99.90;;;;;;5043629;28;20589;-53
2023/03/27 00:19:00;;;;;;;3.33;0.77;;;2.10;99.90;;;;;;5056079;28;20215;-49
2023/03/27 00:21:27;;;;;;;3.77;0.77;;;2.10;99.90;;;;;;5058091;28;20203;-51
2023/03/27 00:23:55;;;;;;;4.73;0.83;;;2.10;99.90;;;;;;5051320;28;20233;-53
2023/03/27 00:26:22;;;;;;;1.83;0.77;;;2.10;99.90;;;;;;5050580;28;20739;-53
2023/03/27 00:28:49;;;;;;;1.57;0.60;;;2.10;99.90;;;;;;5038138;28;23699;-53
2023/03/27 00:31:17;;;;;;;2.57;0.87;;;2.10;99.90;;;;;;5049738;28;20195;-53
2023/03/27 00:33:44;;;;;;;5.47;0.60;;;2.10;99.90;;;;;;5055910;28;20760;-49
2023/03/27 00:36:14;;;;;;;4.73;0.90;;;2.20;99.90;;;;;;5053825;28;20525;-47
2023/03/27 00:38:42;;;;;;;2.10;0.50;;;2.10;99.90;;;;;;5051130;28;20218;-51
2023/03/27 00:41:09;;;;;;;4.03;0.83;;;2.20;99.90;;;;;;5052956;28;20205;-52
2023/03/27 00:43:41;;;;;;;1.37;0.83;;;2.20;99.90;;;;;;5029825;28;20268;-50
2023/03/27 00:46:26;;;;;;;1.47;0.67;;;2.20;99.90;;;;;;5053830;28;20589;-49
2023/03/27 00:48:55;;;;;;;5.73;1.27;;;2.20;99.90;;;;;;5054698;28;20223;-48
2023/03/27 00:51:25;;;;;;;3.00;0.70;;;2.20;99.90;;;;;;5060093;28;20563;-53
2023/03/27 00:53:53;;;;;;;6.03;0.90;;;2.10;99.90;;;;;;5045587;28;20199;-53
2023/03/27 00:56:42;;;;;;;5.37;0.90;;;2.10;99.90;;;;;;5046510;28;20198;-49
2023/03/27 00:59:13;;;;;;;1.40;0.80;;;2.10;99.90;;;;;;5082075;28;20233;-51
2023/03/27 01:01:43;;;;;;;0.87;0.70;;;2.10;99.90;;;;;;5037000;28;20195;-48
2023/03/27 01:04:11;;;;;;;3.97;0.83;;;2.10;99.90;;;;;;5058203;28;20198;-49
2023/03/27 01:06:40;;;;;;;3.03;0.80;;;2.00;99.90;;;;;;5041482;28;20880;-52
2023/03/27 01:09:08;;;;;;;4.53;1.40;;;2.00;99.90;;;;;;5055475;28;20226;-50
2023/03/27 01:11:46;;;;;;;2.83;0.80;;;2.00;99.90;;;;;;5045556;28;20211;-48
2023/03/27 01:14:22;;;;;;;1.00;0.70;;;1.90;99.90;;;;;;5053281;28;20664;-51
2023/03/27 01:17:05;;;;;;;6.70;0.73;;;1.90;99.90;;;;;;5067252;28;20198;-50
2023/03/27 01:19:58;;;;;;;1.50;0.60;;;1.90;99.90;;;;;;5082798;28;20195;-53
2023/03/27 01:23:08;;;;;;;5.33;0.80;;;1.90;99.90;;;;;;5048391;28;20195;-54
2023/03/27 01:26:01;;;;;;;4.07;1.10;;;1.80;99.90;;;;;;5043459;28;20191;-49
2023/03/27 01:28:38;;;;;;;5.10;0.73;;;1.80;99.90;;;;;;5048276;28;20251;-54
2023/03/27 01:31:22;;;;;;;1.60;0.70;;;1.80;99.90;;;;;;5037743;28;20210;-48
2023/03/27 01:34:15;;;;;;;4.90;0.80;;;1.80;99.90;;;;;;5088746;28;20202;-50
2023/03/27 01:37:13;;;;;;;3.47;0.80;;;1.80;99.90;;;;;;5045265;28;20194;-49
2023/03/27 01:39:50;;;;;;;4.63;0.80;;;1.70;99.90;;;;;;5048080;28;20213;-48
2023/03/27 01:42:22;;;;;;;2.97;0.80;;;1.70;99.90;;;;;;5038799;28;20213;-53
2023/03/27 01:44:56;;;;;;;1.23;0.60;;;1.70;99.90;;;;;;5076549;28;20233;-49
2023/03/27 01:47:40;;;;;;;1.03;0.53;;;1.70;99.90;;;;;;5067479;28;20305;-51
2023/03/27 01:50:15;;;;;;;3.70;0.50;;;1.60;99.90;;;;;;5048067;28;20707;-51
2023/03/27 01:52:50;;;;;;;5.37;0.70;;;1.60;99.90;;;;;;5080432;28;20195;-54
2023/03/27 01:55:24;;;;;;;0.73;0.40;;;1.60;99.90;;;;;;5047098;28;20558;-54
2023/03/27 01:57:59;;;;;;;5.20;0.83;;;1.60;99.90;;;;;;5077761;27;20252;-50
2023/03/27 02:00:31;;;;;;;1.53;0.50;;;1.60;99.90;;;;;;5090126;28;20264;-51
2023/03/27 02:03:11;;;;;;;3.77;0.67;;;1.60;99.90;;;;;;5033198;28;20685;-48
2023/03/27 02:05:44;;;;;;;5.10;0.73;;;1.60;99.90;;;;;;5076366;28;20203;-51
2023/03/27 02:08:17;;;;;;;2.30;0.67;;;1.60;99.90;;;;;;5053801;28;20713;-52
2023/03/27 02:10:50;;;;;;;3.10;0.60;;;1.60;99.90;;;;;;5083426;28;20284;-52
2023/03/27 02:13:22;;;;;;;2.43;0.60;;;1.60;99.90;;;;;;5080187;28;20190;-52
2023/03/27 02:15:50;;;;;;;2.67;0.80;;;1.60;99.90;;;;;;5052204;28;20191;-50
2023/03/27 02:18:26;;;;;;;4.17;0.87;;;1.60;99.90;;;;;;5064862;28;20811;-50
2023/03/27 02:20:53;;;;;;;2.47;0.80;;;1.60;99.90;;;;;;5046355;28;20205;-48
2023/03/27 02:23:21;;;;;;;4.40;0.80;;;1.60;99.90;;;;;;5053237;28;20231;-54
2023/03/27 02:25:53;;;;;;;1.57;0.53;;;1.60;99.90;;;;;;5053772;28;20197;-50
2023/03/27 02:28:47;;;;;;;1.90;0.60;;;1.60;99.90;;;;;;5050268;28;20241;-53
2023/03/27 02:31:30;;;;;;;5.00;0.80;;;1.60;99.90;;;;;;5044482;28;20276;-54
2023/03/27 02:34:17;;;;;;;2.00;0.70;;;1.60;99.90;;;;;;5040128;28;20202;-49
2023/03/27 02:36:54;;;;;;;5.60;0.60;;;1.60;99.90;;;;;;5044871;28;20211;-49
2023/03/27 02:39:34;;;;;;;3.17;0.93;;;1.60;99.90;;;;;;5060329;28;20609;-52
2023/03/27 02:42:11;;;;;;;4.33;0.90;;;1.60;99.90;;;;;;5076979;28;20194;-51
2023/03/27 02:44:50;;;;;;;4.67;0.80;;;1.60;99.90;;;;;;5051433;28;20211;-48
2023/03/27 02:47:25;;;;;;;3.57;0.80;;;1.60;99.90;;;;;;5078369;27;20217;-54
2023/03/27 02:49:57;;;;;;;3.20;0.70;;;1.60;99.90;;;;;;5042272;28;20302;-49
2023/03/27 02:52:31;;;;;;;2.47;0.97;;;1.60;99.90;;;;;;5050056;28;20199;-52
2023/03/27 02:55:05;;;;;;;4.50;1.10;;;1.60;99.90;;;;;;5082234;28;20614;-50
2023/03/27 02:57:38;;;;;;;2.73;0.70;;;1.60;99.90;;;;;;5081487;28;20209;-53
2023/03/27 03:00:36;;;;;;;2.70;0.90;;;1.50;99.90;;;;;;5078092;28;20205;-52
2023/03/27 03:03:31;;;;;;;5.33;1.40;;;1.50;99.90;;;;;;5042866;28;20685;-51
2023/03/27 03:06:06;;;;;;;3.03;1.07;;;1.50;99.90;;;;;;5070507;28;20297;-51
2023/03/27 03:08:37;;;;;;;2.30;0.83;;;1.50;99.90;;;;;;5042445;28;20230;-49
2023/03/27 03:11:07;;;;;;;4.43;0.90;;;1.50;99.90;;;;;;5053473;28;20295;-49
2023/03/27 03:13:35;;;;;;;4.37;0.80;;;1.50;99.90;;;;;;5055244;28;20218;-52
2023/03/27 03:16:02;;;;;;;2.63;0.83;;;1.50;99.90;;;;;;5050981;28;20304;-52
2023/03/27 03:18:29;;;;;;;2.67;1.00;;;1.40;99.90;;;;;;5045413;28;20223;-51
2023/03/27 03:20:58;;;;;;;3.23;1.00;;;1.50;99.90;;;;;;5036304;28;20330;-49
2023/03/27 03:23:26;;;;;;;1.57;1.20;;;1.50;99.90;;;;;;5047495;28;20235;-51
2023/03/27 03:25:55;;;;;;;5.53;1.20;;;1.40;99.90;;;;;;5046255;28;20765;-50
2023/03/27 03:28:26;;;;;;;5.23;1.00;;;1.40;99.90;;;;;;5081073;28;20227;-51
2023/03/27 03:30:57;;;;;;;2.67;1.03;;;1.40;99.90;;;;;;5042809;28;20692;-50
2023/03/27 03:33:26;;;;;;;2.63;0.93;;;1.40;99.90;;;;;;5067973;28;20207;-46
2023/03/27 03:35:53;;;;;;;3.53;1.10;;;1.40;99.90;;;;;;5047591;28;20263;-51
2023/03/27 03:38:28;;;;;;;3.80;1.27;;;1.40;99.90;;;;;;5038126;28;20240;-48
2023/03/27 03:40:58;;;;;;;5.37;1.00;;;1.40;99.90;;;;;;5049859;28;20206;-51
2023/03/27 03:43:26;;;;;;;1.83;0.90;;;1.40;99.90;;;;;;5040046;28;20195;-46
2023/03/27 03:45:57;;;;;;;2.00;0.87;;;1.40;99.90;;;;;;5091160;28;20229;-52
2023/03/27 03:48:25;;;;;;;4.13;0.97;;;1.30;99.90;;;;;;5039605;28;20228;-47
2023/03/27 03:50:53;;;;;;;6.90;1.30;;;1.30;99.90;;;;;;5051314;28;20198;-50
2023/03/27 03:53:21;;;;;;;4.47;0.90;;;1.30;99.90;;;;;;5068323;28;21042;-52
2023/03/27 03:55:51;;;;;;;4.97;1.30;;;1.30;99.90;;;;;;5046705;28;20213;-46
2023/03/27 03:58:18;;;;;;;2.53;0.80;;;1.30;99.90;;;;;;5055733;28;20214;-48
2023/03/27 04:00:46;;;;;;;1.90;0.80;;;1.30;99.90;;;;;;5052119;28;20233;-49
2023/03/27 04:03:31;;;;;;;1.40;0.83;;;1.30;99.90;;;;;;5086677;27;20218;-47
2023/03/27 04:05:59;;;;;;;4.53;0.73;;;1.20;99.90;;;;;;5078946;28;20328;-52
2023/03/27 04:08:27;;;;;;;2.13;1.00;;;1.20;99.90;;;;;;5042464;28;20222;-53
2023/03/27 04:11:10;;;;;;;4.07;0.87;;;1.20;99.90;;;;;;5083220;27;20212;-49
2023/03/27 04:13:48;;;;;;;3.57;1.03;;;1.10;99.90;;;;;;5052076;28;20244;-49
2023/03/27 04:16:33;;;;;;;6.40;0.90;;;1.20;99.90;;;;;;5087053;28;20230;-50
2023/03/27 04:19:08;;;;;;;4.17;1.00;;;1.20;99.90;;;;;;5073371;28;20213;-51
2023/03/27 04:21:38;;;;;;;1.83;0.93;;;1.20;99.90;;;;;;5086502;28;20213;-48
2023/03/27 04:24:07;;;;;;;7.63;1.10;;;1.20;99.90;;;;;;5044278;28;20206;-50
2023/03/27 04:26:43;;;;;;;4.77;1.50;;;1.20;99.90;;;;;;5049202;28;20238;-52
2023/03/27 04:29:21;;;;;;;3.73;1.10;;;1.20;99.90;;;;;;5056728;28;20229;-53
2023/03/27 04:32:17;;;;;;;1.60;1.10;;;1.20;99.90;;;;;;5050610;28;20664;-51
2023/03/27 04:35:10;;;;;;;2.67;0.90;;;1.20;99.90;;;;;;5046823;28;20214;-49
2023/03/27 04:37:56;;;;;;;8.13;1.37;;;1.20;99.90;;;;;;5081699;28;20440;-51
2023/03/27 04:40:37;;;;;;;7.50;1.30;;;1.20;99.90;;;;;;5040236;28;20704;-53
2023/03/27 04:43:04;;;;;;;4.50;1.13;;;1.20;99.90;;;;;;5043609;28;20203;-49
2023/03/27 04:45:33;;;;;;;3.63;1.27;;;1.20;99.90;;;;;;5047343;28;20213;-50
2023/03/27 04:48:01;;;;;;;6.23;1.17;;;1.20;99.90;;;;;;5056621;28;20222;-51
2023/03/27 04:50:29;;;;;;;5.37;1.10;;;1.20;99.90;;;;;;5042581;28;20571;-50
2023/03/27 04:52:58;;;;;;;5.30;1.20;;;1.20;99.90;;;;;;5056575;28;20249;-50
2023/03/27 04:55:29;;;;;;;5.07;1.50;;;1.20;99.90;;;;;;5069212;28;20206;-51
2023/03/27 04:57:56;;;;;;;2.53;1.10;;;1.20;99.90;;;;;;5048451;28;20237;-47
2023/03/27 05:00:23;;;;;;;7.00;1.83;;;1.20;99.90;;;;;;5056345;28;20205;-52
2023/03/27 05:03:09;;;;;;;4.47;1.40;;;1.20;99.90;;;;;;5061473;28;20220;-47
2023/03/27 05:05:54;;;;;;;10.47;1.80;;;1.20;99.90;;;;;;5045161;28;21328;-52
2023/03/27 05:08:20;;;;;;;4.13;1.60;;;1.20;99.90;;;;;;5064786;28;20627;-53
2023/03/27 05:10:48;;;;;;;17.97;1.80;;;1.20;99.90;;;;;;5069115;27;20207;-49
2023/03/27 05:13:15;;;;;;;7.10;1.73;;;1.20;99.90;;;;;;5096378;27;20560;-53
2023/03/27 05:15:42;;;;;;;6.23;1.80;;;1.20;99.90;;;;;;5049501;28;20193;-48
2023/03/27 05:18:12;;;;;;;7.67;2.00;;;1.10;99.90;;;;;;5046230;28;20237;-50
2023/03/27 05:20:39;;;;;;;4.80;1.80;;;1.20;99.90;;;;;;5080196;28;20996;-49
2023/03/27 05:23:11;;;;;;;5.60;2.23;;;1.10;99.90;;;;;;5091435;28;20200;-52
2023/03/27 05:25:39;;;;;;;5.83;1.80;;;1.10;99.90;;;;;;5044402;28;25060;-49
2023/03/27 05:28:10;;;;;;;2.40;1.90;;;1.10;99.90;;;;;;5055972;28;20745;-52
2023/03/27 05:30:37;;;;;;;5.13;2.27;;;1.10;99.90;;;;;;5044117;28;20977;-51
2023/03/27 05:33:15;;;;;;;7.17;2.13;;;1.10;99.90;;;;;;5058094;28;20291;-54
2023/03/27 05:35:42;;;;;;;5.80;2.67;;;1.10;99.90;;;;;;5060537;28;20190;-49
2023/03/27 05:38:10;;;;;;;3.63;2.10;;;1.10;99.90;;;;;;5052583;28;20212;-50
2023/03/27 05:40:57;;;;;;;5.37;2.10;;;1.10;99.90;;;;;;5058970;28;20198;-50
2023/03/27 05:43:25;;;;;;;5.93;1.53;;;1.20;99.90;;;;;;5064627;28;20202;-50
2023/03/27 05:45:52;;;;;;;3.10;1.80;;;1.20;99.90;;;;;;5056914;28;20291;-49
2023/03/27 05:48:19;;;;;;;3.50;1.93;;;1.20;99.90;;;;;;5052146;28;20237;-51
2023/03/27 05:50:46;;;;;;;2.83;1.70;;;1.20;99.90;;;;;;5062365;28;20255;-54
2023/03/27 05:53:24;;;;;;;1.30;1.20;;;1.20;99.90;;;;;;5047642;28;20198;-48
2023/03/27 05:56:07;;;;;;;2.97;1.20;;;1.30;99.90;;;;;;5078791;28;20197;-52
2023/03/27 05:58:46;;;;;;;8.53;1.70;;;1.30;99.90;;;;;;5060968;28;20249;-50
2023/03/27 06:01:13;;;;;;;5.80;1.50;;;1.40;99.90;;;;;;5045362;28;20194;-55
2023/03/27 06:03:40;;;;;;;3.63;1.43;;;1.40;99.90;;;;;;5049154;28;20218;-52
2023/03/27 06:06:14;;;;;;;4.17;1.33;;;1.40;99.90;;;;;;5056643;28;20593;-53
2023/03/27 06:08:44;;;;;;;3.20;1.27;;;1.50;99.90;;;;;;5077238;27;20233;-54
2023/03/27 06:11:12;;;;;;;4.57;1.40;;;1.50;99.90;;;;;;5042118;28;20676;-53
2023/03/27 06:13:46;;;;;;;3.70;1.27;;;1.60;99.90;;;;;;5059841;28;20203;-53
2023/03/27 06:16:25;;;;;;;3.17;1.30;;;1.60;99.90;;;;;;5050800;28;20218;-49
2023/03/27 06:19:10;;;;;;;3.67;1.57;;;1.70;99.90;;;;;;5046827;28;20234;-56
2023/03/27 06:21:45;;;;;;;3.23;1.40;;;1.80;99.90;;;;;;5060637;28;20193;-51
2023/03/27 06:24:13;;;;;;;2.57;1.27;;;1.80;99.90;;;;;;5043070;28;20234;-54
2023/03/27 06:26:41;;;;;;;4.27;1.23;;;1.90;99.90;;;;;;5050094;28;20688;-52
2023/03/27 06:29:09;;;;;;;5.23;1.40;;;2.00;99.90;;;;;;5041154;28;20272;-55
2023/03/27 06:31:44;;;;;;;3.60;1.67;;;2.00;99.90;;;;;;5059269;28;20212;-51
2023/03/27 06:34:17;;;;;;;2.57;1.00;;;2.10;99.90;;;;;;5051168;28;20294;-55
2023/03/27 06:36:49;;;;;;;8.27;1.40;;;2.20;99.90;;;;;;5088187;27;20680;-54
2023/03/27 06:39:18;;;;;;;3.50;1.70;;;2.30;99.90;;;;;;5051661;28;20214;-51
2023/03/27 06:41:52;;;;;;;6.77;1.50;;;2.40;99.90;;;;;;5054844;28;20214;-55
2023/03/27 06:44:19;;;;;;;6.33;1.83;;;2.40;99.90;;;;;;5041009;28;20219;-51
2023/03/27 06:47:12;;;;;;;4.40;1.77;;;2.40;99.90;;;;;;5046731;28;20230;-53
2023/03/27 06:50:00;;;;;;;4.03;1.50;;;2.40;99.90;;;;;;5050956;28;20245;-55
2023/03/27 06:52:28;;;;;;;2.83;1.60;;;2.40;99.90;;;;;;5057491;28;20684;-51
2023/03/27 06:55:09;;;;;;;3.17;1.47;;;2.40;99.90;;;;;;5073213;28;22932;-52
2023/03/27 06:57:36;;;;;;;1.40;1.27;;;2.40;99.90;;;;;;5039462;28;20227;-55
2023/03/27 07:00:10;;;;;;;2.60;1.33;;;2.40;99.90;;;;;;5029094;28;20356;-52
2023/03/27 07:03:01;;;;;;;7.63;1.60;;;2.40;99.90;;;;;;5056636;28;20304;-53
2023/03/27 07:05:48;;;;;;;4.90;1.43;;;2.40;99.90;;;;;;5043542;28;20277;-55
2023/03/27 07:08:17;;;;;;;6.27;1.83;;;2.40;99.90;;;;;;5054857;28;20304;-53
2023/03/27 07:10:47;;;;;;;4.57;1.10;;;2.50;99.90;;;;;;5044209;28;20328;-55
2023/03/27 07:13:15;;;;;;;6.93;1.10;;;2.50;99.90;;;;;;5051474;28;20199;-51
2023/03/27 07:15:42;;;;;;;3.67;1.10;;;2.60;99.90;;;;;;5034124;28;20217;-56
2023/03/27 07:18:10;;;;;;;6.23;1.40;;;2.70;99.90;;;;;;5048539;28;20225;-51
2023/03/27 07:20:38;;;;;;;4.00;1.00;;;2.70;99.90;;;;;;5042561;28;20219;-55
2023/03/27 07:23:11;;;;;;;0.90;0.90;;;2.80;99.90;;;;;;5077453;27;20215;-52
2023/03/27 07:25:58;;;;;;;1.63;1.10;;;2.90;99.90;;;;;;5053967;28;20203;-53
2023/03/27 07:28:44;;;;;;;3.37;1.50;;;3.00;99.90;;;;;;5037635;28;21420;-52
2023/03/27 07:31:15;;;;;;;3.33;1.00;;;3.10;99.90;;;;;;5043503;28;20214;-54
2023/03/27 07:33:42;;;;;;;3.83;1.07;;;3.20;99.90;;;;;;5044495;28;20234;-50
2023/03/27 07:36:10;;;;;;;4.77;1.10;;;3.20;99.90;;;;;;5050869;28;20728;-53
2023/03/27 07:38:46;;;;;;;2.90;0.93;;;3.30;99.90;;;;;;5054706;28;20210;-54
2023/03/27 07:41:34;;;;;;;3.43;0.90;;;3.30;99.90;;;;;;5040332;28;23598;-55
2023/03/27 07:44:23;;;;;;;4.27;1.17;;;3.40;99.90;;;;;;5047958;28;20211;-55
2023/03/27 07:46:59;;;;;;;1.30;0.70;;;3.50;99.90;;;;;;5076529;28;20213;-53
2023/03/27 07:49:26;;;;;;;4.27;1.20;;;3.60;99.90;;;;;;5046741;28;20219;-54
2023/03/27 07:51:53;;;;;;;3.13;1.10;;;3.70;99.90;;;;;;5051870;28;20214;-52
2023/03/27 07:54:23;;;;;;;5.87;0.70;;;3.70;99.90;;;;;;5054644;28;20234;-55
2023/03/27 07:56:55;;;;;;;3.63;1.23;;;3.70;99.90;;;;;;5052846;28;20242;-51
2023/03/27 07:59:32;;;;;;;4.50;0.80;;;3.80;99.90;;;;;;5041803;28;20252;-53
2023/03/27 08:02:06;;;;;;;4.10;0.80;;;3.90;99.90;;;;;;5072349;28;20216;-53
2023/03/27 08:04:37;;;;;;;4.27;0.80;;;4.10;99.90;;;;;;5047451;28;20244;-52
2023/03/27 08:07:06;;;;;;;3.10;0.77;;;4.20;99.90;;;;;;5049494;28;20210;-50
2023/03/27 08:09:35;;;;;;;4.03;0.70;;;4.30;99.90;;;;;;5056912;28;20215;-55
2023/03/27 08:12:06;;;;;;;1.67;0.93;;;4.20;99.90;;;;;;5085626;28;20198;-54
2023/03/27 08:14:37;;;;;;;1.33;0.87;;;4.30;99.90;;;;;;5072302;28;20204;-53
2023/03/27 08:17:13;;;;;;;3.47;0.70;;;4.30;99.90;;;;;;5068803;28;20238;-55
2023/03/27 08:19:40;;;;;;;4.27;0.60;;;4.50;99.90;;;;;;5048575;28;20284;-54
2023/03/27 08:22:07;;;;;;;3.57;0.90;;;4.70;99.90;;;;;;5047590;28;20254;-53
2023/03/27 08:24:48;;;;;;;2.10;0.60;;;4.70;99.90;;;;;;5085653;28;20199;-54
2023/03/27 08:27:25;;;;;;;4.73;1.00;;;4.70;99.90;;;;;;5054043;28;20317;-53
2023/03/27 08:29:52;;;;;;;1.87;0.60;;;4.80;99.90;;;;;;5044394;28;20680;-50
2023/03/27 08:32:19;;;;;;;1.33;0.57;;;4.90;99.90;;;;;;5040027;28;20206;-55
2023/03/27 08:34:48;;;;;;;2.53;0.70;;;4.90;99.90;;;;;;5056717;28;20219;-54
2023/03/27 08:37:20;;;;;;;1.53;0.43;;;5.00;99.90;;;;;;5040106;28;20732;-54
2023/03/27 08:40:12;;;;;;;2.57;0.60;;;5.00;99.90;;;;;;5055599;28;20221;-53
2023/03/27 08:42:43;;;;;;;1.83;0.60;;;4.90;99.90;;;;;;5047624;28;20305;-53
2023/03/27 08:45:19;;;;;;;0.97;0.70;;;4.80;99.90;;;;;;5050019;28;20199;-53
2023/03/27 08:47:53;;;;;;;2.10;0.70;;;4.80;99.90;;;;;;5035229;28;20225;-52
2023/03/27 08:50:31;;;;;;;0.83;0.50;;;4.80;99.90;;;;;;5086224;27;20324;-52
2023/03/27 08:53:22;;;;;;;2.50;0.63;;;4.80;99.90;;;;;;5045562;28;20607;-51
2023/03/27 08:55:49;;;;;;;2.00;0.90;;;5.00;99.90;;;;;;5049210;28;20195;-52
2023/03/27 08:58:34;;;;;;;2.23;0.60;;;5.20;99.90;;;;;;5049653;28;20229;-56
2023/03/27 09:01:34;;;;;;;4.53;0.70;;;5.10;99.90;;;;;;5055325;28;20204;-51
2023/03/27 09:04:15;;;;;;;2.40;0.80;;;5.30;99.90;;;;;;5045325;28;20262;-52
2023/03/27 09:06:51;;;;;;;1.87;0.50;;;5.40;99.90;;;;;;5082211;28;20270;-52
2023/03/27 09:09:31;;;;;;;2.87;0.43;;;5.50;99.90;;;;;;5049269;28;20211;-55
2023/03/27 09:12:04;;;;;;;2.90;0.60;;;5.40;99.90;;;;;;5060549;28;20206;-54
2023/03/27 09:14:40;;;;;;;3.70;0.70;;;5.40;99.90;;;;;;4988483;28;20247;-52
2023/03/27 09:17:16;;;;;;;6.43;0.73;;;5.30;99.90;;;;;;5042799;27;20266;-53
2023/03/27 09:19:50;;;;;;;3.73;0.63;;;5.20;99.90;;;;;;5082592;27;20204;-53
2023/03/27 09:22:23;;;;;;;3.73;1.00;;;5.30;99.90;;;;;;5047362;28;21102;-53
2023/03/27 09:25:26;;;;;;;4.20;0.90;;;5.40;99.90;;;;;;5056153;28;20219;-54
2023/03/27 09:28:19;;;;;;;6.73;0.80;;;5.60;99.90;;;;;;5062183;28;20581;-54
2023/03/27 09:30:56;;;;;;;3.97;0.90;;;5.50;99.90;;;;;;5085335;27;20220;-50
2023/03/27 09:33:30;;;;;;;3.63;0.70;;;5.50;99.90;;;;;;5079687;27;20934;-51
2023/03/27 09:35:58;;;;;;;1.73;0.73;;;5.40;99.90;;;;;;5071662;27;20693;-54
2023/03/27 09:38:32;;;;;;;3.57;1.30;;;5.50;99.90;;;;;;5047121;28;20379;-49
2023/03/27 09:41:03;;;;;;;1.67;0.90;;;5.70;99.90;;;;;;5054095;28;20873;-52
2023/03/27 09:43:39;;;;;;;8.37;1.27;;;5.80;99.90;;;;;;5063664;28;20191;-54
2023/03/27 09:46:10;;;;;;;3.33;0.93;;;5.80;99.90;;;;;;5059932;28;20211;-54
2023/03/27 09:48:43;;;;;;;5.70;1.33;;;5.70;99.90;;;;;;5064285;28;20260;-52
2023/03/27 09:51:40;;;;;;;3.17;0.70;;;5.80;99.90;;;;;;5044816;28;20698;-55
2023/03/27 09:54:15;;;;;;;4.57;0.70;;;5.90;99.90;;;;;;5040497;28;20231;-55
2023/03/27 09:56:46;;;;;;;2.90;1.40;;;6.10;99.90;;;;;;4988018;28;20291;-55
2023/03/27 09:59:23;;;;;;;0.77;0.40;;;6.20;99.90;;;;;;5015752;28;20237;-51
2023/03/27 10:01:55;;;;;;;2.27;0.63;;;6.20;99.90;;;;;;5017387;28;20205;-56
2023/03/27 10:04:24;;;;;;;2.83;0.57;;;6.20;99.90;;;;;;5036282;28;20283;-53
2023/03/27 10:07:01;;;;;;;2.80;0.60;;;6.30;99.90;;;;;;5027919;28;20206;-50
2023/03/27 10:10:06;;;;;;;2.20;0.70;;;6.50;99.90;;;;;;5022659;28;20223;-52
2023/03/27 10:12:57;;;;;;;4.00;0.73;;;6.50;99.90;;;;;;5012478;28;20301;-53
2023/03/27 10:15:44;;;;;;;1.43;0.53;;;6.40;99.90;;;;;;5065715;28;20331;-55
2023/03/27 10:18:25;;;;;;;3.07;0.80;;;6.20;99.90;;;;;;5062321;28;20696;-54
2023/03/27 10:20:58;;;;;;;3.53;0.90;;;6.00;99.90;;;;;;5017152;28;20222;-55
2023/03/27 10:23:27;;;;;;;2.83;0.80;;;5.80;99.90;;;;;;4985736;28;20836;-50
2023/03/27 10:26:00;;;;;;;4.47;0.60;;;5.60;99.90;;;;;;5008251;28;20192;-51
2023/03/27 10:28:37;;;;;;;2.43;1.10;;;5.50;99.90;;;;;;5044148;28;20317;-55
2023/03/27 10:31:26;;;;;;;2.17;0.77;;;5.20;99.90;;;;;;5020350;28;20211;-52
2023/03/27 10:34:26;;;;;;;1.23;0.57;;;4.80;99.90;;;;;;5038790;28;20210;-54
2023/03/27 10:37:25;;;;;;;1.33;0.60;;;4.70;99.90;;;;;;5009323;28;20224;-55
2023/03/27 10:39:58;;;;;;;1.07;0.50;;;4.00;99.90;;;;;;4997327;28;20930;-56
2023/03/27 10:42:38;;;;;;;0.47;0.30;;;3.30;99.90;;;;;;5013798;28;20227;-57
2023/03/27 10:45:08;;;;;;;1.47;0.47;;;2.90;99.90;;;;;;5015490;28;20978;-55
2023/03/27 10:47:35;;;;;;;0.13;0.13;;;2.70;99.90;;;;;;5055653;28;20220;-55
2023/03/27 10:50:10;;;;;;;2.20;0.83;;;2.60;99.90;;;;;;5010818;28;20231;-50
2023/03/27 10:52:52;;;;;;;1.67;0.40;;;2.50;99.90;;;;;;5037676;28;20250;-56
2023/03/27 10:55:38;;;;;;;1.23;0.37;;;2.50;99.90;;;;;;5051262;28;20195;-54
2023/03/27 10:58:23;;;;;;;0.87;0.30;;;2.50;99.90;;;;;;5012703;28;20227;-54
2023/03/27 11:00:57;;;;;;;1.30;0.40;;;2.50;99.90;;;;;;5008011;28;20204;-57
2023/03/27 11:03:31;;;;;;;0.30;0.30;;;2.70;99.90;;;;;;5024677;28;20195;-48
2023/03/27 11:06:11;;;;;;;1.80;0.50;;;2.90;99.90;;;;;;5006576;28;20206;-58
2023/03/27 11:08:50;;;;;;;0.77;0.50;;;3.10;99.90;;;;;;5036358;28;20227;-55
2023/03/27 11:11:23;;;;;;;0.43;0.40;;;3.20;99.90;;;;;;5005133;28;20215;-58
2023/03/27 11:13:54;;;;;;;1.50;0.50;;;3.30;99.90;;;;;;5047185;28;20199;-56
2023/03/27 11:16:26;;;;;;;1.73;0.63;;;3.50;99.90;;;;;;5009800;28;20263;-55
2023/03/27 11:19:36;;;;;;;1.47;0.40;;;3.70;99.90;;;;;;5011890;28;20320;-57
2023/03/27 11:22:28;;;;;;;0.47;0.40;;;3.90;99.90;;;;;;5019391;28;20211;-54
2023/03/27 11:25:02;;;;;;;1.07;0.60;;;3.90;99.90;;;;;;4995709;28;20202;-57
2023/03/27 11:27:35;;;;;;;0.70;0.40;;;4.10;99.90;;;;;;5012251;28;20227;-53
2023/03/27 11:30:23;;;;;;;1.03;0.63;;;4.30;99.90;;;;;;5008731;28;20234;-56
2023/03/27 11:33:08;;;;;;;0.80;0.50;;;4.50;99.90;;;;;;5056362;28;20730;-53
2023/03/27 11:35:38;;;;;;;1.37;0.57;;;4.70;99.90;;;;;;5040514;28;20305;-56
2023/03/27 11:38:30;;;;;;;8.17;4.67;;;4.80;99.90;;;;;;4994867;28;20245;-56
2023/03/27 11:40:57;;;;;;;1.53;0.60;;;4.80;99.90;;;;;;5020888;28;20281;-54
2023/03/27 11:43:25;;;;;;;1.90;0.40;;;4.90;99.90;;;;;;5013996;28;20207;-54
2023/03/27 11:46:03;;;;;;;2.17;0.40;;;5.00;99.90;;;;;;5017750;28;20220;-51
2023/03/27 11:49:00;;;;;;;2.20;0.70;;;5.00;99.90;;;;;;5010096;28;20322;-53
2023/03/27 11:51:40;;;;;;;1.20;0.60;;;5.00;99.90;;;;;;5041930;28;20212;-51
2023/03/27 11:54:23;;;;;;;1.37;0.40;;;4.90;99.90;;;;;;4993944;28;20199;-52
2023/03/27 11:57:02;;;;;;;0.80;0.30;;;4.80;99.90;;;;;;5057288;28;20276;-51
2023/03/27 12:00:04;;;;;;;0.57;0.30;;;4.20;99.90;;;;;;5011602;28;20244;-50
2023/03/27 12:02:56;;;;;;;5.13;0.50;;;4.00;99.90;;;;;;5005190;28;20283;-49
2023/03/27 12:05:37;;;;;;;0.40;0.30;;;4.00;99.90;;;;;;5014684;28;20373;-49
2023/03/27 12:08:08;;;;;;;0.73;0.40;;;4.00;99.90;;;;;;5010308;28;20729;-49
2023/03/27 12:10:41;;;;;;;2.23;0.50;;;4.00;99.90;;;;;;5003802;28;20236;-51
2023/03/27 12:13:33;;;;;;;1.50;0.50;;;4.00;99.90;;;;;;5014450;28;20191;-51
2023/03/27 12:16:22;;;;;;;2.93;0.30;;;4.00;99.90;;;;;;5008739;28;20306;-51
2023/03/27 12:19:09;;;;;;;0.50;0.30;;;4.00;99.90;;;;;;5038338;28;21110;-49
2023/03/27 12:21:52;;;;;;;0.50;0.30;;;4.20;99.90;;;;;;5018434;28;20191;-53
2023/03/27 12:24:32;;;;;;;1.70;0.60;;;4.20;99.90;;;;;;5009362;28;20211;-51
2023/03/27 12:27:37;;;;;;;0.73;0.30;;;4.40;99.90;;;;;;4982263;28;20220;-53
2023/03/27 12:30:38;;;;;;;2.40;0.60;;;4.70;99.90;;;;;;4989704;28;20251;-52
2023/03/27 12:33:19;;;;;;;1.47;0.40;;;5.10;99.90;;;;;;5011196;28;20204;-50
2023/03/27 12:35:49;;;;;;;2.67;0.43;;;5.20;99.90;;;;;;5010304;28;20270;-54
2023/03/27 12:38:25;;;;;;;2.87;0.50;;;5.40;99.90;;;;;;5005298;28;20298;-54
2023/03/27 12:41:04;;;;;;;2.10;0.63;;;5.50;99.90;;;;;;4986797;28;20536;-50
2023/03/27 12:43:55;;;;;;;2.83;0.60;;;5.60;99.90;;;;;;5008737;28;20281;-50
2023/03/27 12:46:34;;;;;;;2.87;0.70;;;5.70;99.90;;;;;;5012419;28;20200;-54
2023/03/27 12:49:05;;;;;;;1.40;0.40;;;5.60;99.90;;;;;;5005722;28;20219;-52
2023/03/27 12:51:43;;;;;;;1.00;0.77;;;5.60;99.90;;;;;;5022281;28;20215;-51
2023/03/27 12:54:24;;;;;;;3.10;0.83;;;5.60;99.90;;;;;;5005579;28;20281;-53
2023/03/27 12:56:58;;;;;;;2.27;0.40;;;5.60;99.90;;;;;;5000535;28;20205;-52
2023/03/27 12:59:31;;;;;;;1.03;0.60;;;5.70;99.90;;;;;;5012782;28;20203;-54
2023/03/27 13:02:37;;;;;;;1.27;0.60;;;5.60;99.90;;;;;;5004924;28;20340;-53
2023/03/27 13:05:25;;;;;;;1.07;0.40;;;5.60;99.90;;;;;;5008580;28;20265;-54
2023/03/27 13:08:09;;;;;;;5.23;0.70;;;5.60;99.90;;;;;;4995417;28;20227;-50
2023/03/27 13:11:01;;;;;;;3.43;0.60;;;5.50;99.90;;;;;;4982871;28;20227;-51
2023/03/27 13:13:57;;;;;;;3.93;0.73;;;5.50;99.90;;;;;;5004266;28;20212;-53
2023/03/27 13:16:36;;;;;;;0.67;0.30;;;5.40;99.90;;;;;;5000159;28;20220;-53
2023/03/27 13:19:28;;;;;;;1.67;0.67;;;5.40;99.90;;;;;;5010282;28;20230;-51
2023/03/27 13:22:25;;;;;;;1.70;0.63;;;5.50;99.90;;;;;;5021014;28;20575;-52
2023/03/27 13:25:04;;;;;;;1.50;0.60;;;5.60;99.90;;;;;;5002219;28;20204;-52
2023/03/27 13:27:43;;;;;;;3.50;0.60;;;5.60;99.90;;;;;;4989419;28;20303;-51
2023/03/27 13:30:39;;;;;;;1.50;0.67;;;5.80;99.90;;;;;;5013981;28;20680;-51
2023/03/27 13:33:25;;;;;;;2.27;0.63;;;6.20;99.90;;;;;;5010604;28;20196;-48
2023/03/27 13:36:03;;;;;;;1.13;0.30;;;6.40;99.90;;;;;;5001972;28;20370;-52
2023/03/27 13:39:13;;;;;;;2.07;0.50;;;6.60;99.90;;;;;;5015121;28;20220;-48
2023/03/27 13:41:56;;;;;;;1.03;1.03;;;6.60;99.90;;;;;;5006254;28;20796;-48
2023/03/27 13:44:58;;;;;;;3.17;0.40;;;6.70;99.90;;;;;;5002581;28;20220;-52
2023/03/27 13:47:52;;;;;;;1.60;0.50;;;7.10;99.90;;;;;;5038476;28;20321;-53